Time;durP1;ratioP1;P1;durP2;ratioP2;P2;SDS_P1;SDS_P2;PMS_P1;PMS_P2;Temp;Humidity;BMP_temperature;BMP_pressure;BME280_temperature;BME280_humidity;BME280_pressure;Samples;Min_cycle;Max_cycle;Signal;HPM_P1;HPM_P2
2023/06/09 00:01:25;;;;;;;6.47;2.58;;;;;;;;;;5110668;28;20043;-60
2023/06/09 00:03:52;;;;;;;3.60;2.10;;;;;;;;;;5111679;28;20043;-60
2023/06/09 00:06:22;;;;;;;6.63;2.17;;;;;;;;;;5110850;28;21109;-60
2023/06/09 00:08:50;;;;;;;5.30;2.42;;;;;;;;;;5108627;28;20039;-60
2023/06/09 00:11:18;;;;;;;8.43;2.05;;;;;;;;;;5111215;28;20044;-60
2023/06/09 00:13:46;;;;;;;11.73;2.58;;;;;;;;;;5111239;28;20509;-60
2023/06/09 00:16:15;;;;;;;7.55;2.40;;;;;;;;;;5107857;28;20124;-61
2023/06/09 00:18:43;;;;;;;9.98;2.20;;;;;;;;;;5108789;28;20105;-60
2023/06/09 00:21:18;;;;;;;5.40;2.35;;;;;;;;;;5109359;28;20501;-60
2023/06/09 00:23:45;;;;;;;7.25;2.38;;;;;;;;;;5108478;27;20444;-60
2023/06/09 00:26:12;;;;;;;3.67;2.17;;;;;;;;;;5101967;27;20050;-60
2023/06/09 00:28:42;;;;;;;6.55;2.28;;;;;;;;;;5109199;28;20047;-60
2023/06/09 00:31:10;;;;;;;6.45;2.25;;;;;;;;;;5105008;28;20494;-60
2023/06/09 00:33:37;;;;;;;9.85;2.40;;;;;;;;;;5083377;28;20059;-60
2023/06/09 00:36:04;;;;;;;5.97;2.40;;;;;;;;;;5090378;28;20054;-61
2023/06/09 00:38:32;;;;;;;6.68;2.17;;;;;;;;;;5111787;27;20059;-61
2023/06/09 00:41:00;;;;;;;6.13;2.20;;;;;;;;;;5107008;28;20056;-60
2023/06/09 00:43:28;;;;;;;7.88;2.45;;;;;;;;;;5107460;28;20035;-60
2023/06/09 00:45:56;;;;;;;5.93;2.35;;;;;;;;;;5100372;28;20059;-60
2023/06/09 00:48:24;;;;;;;7.13;2.20;;;;;;;;;;5104888;27;20071;-60
2023/06/09 00:50:51;;;;;;;4.93;2.35;;;;;;;;;;5081439;28;20056;-61
2023/06/09 00:53:18;;;;;;;6.95;2.22;;;;;;;;;;5110027;28;20055;-60
2023/06/09 00:55:45;;;;;;;7.38;2.42;;;;;;;;;;5110795;27;20051;-60
2023/06/09 00:58:13;;;;;;;5.35;2.08;;;;;;;;;;5103392;28;20509;-60
2023/06/09 01:00:40;;;;;;;7.05;2.15;;;;;;;;;;5108879;28;20051;-60
2023/06/09 01:03:10;;;;;;;5.47;2.50;;;;;;;;;;5107766;28;20460;-60
2023/06/09 01:05:38;;;;;;;6.05;2.40;;;;;;;;;;5108176;28;20040;-60
2023/06/09 01:08:11;;;;;;;7.78;2.50;;;;;;;;;;5107274;28;20066;-60
2023/06/09 01:10:41;;;;;;;6.32;2.30;;;;;;;;;;5106725;28;20056;-60
2023/06/09 01:13:14;;;;;;;9.23;2.88;;;;;;;;;;5106950;28;20104;-60
2023/06/09 01:15:45;;;;;;;4.90;2.25;;;;;;;;;;5107075;28;20086;-60
2023/06/09 01:18:15;;;;;;;8.65;2.92;;;;;;;;;;5106573;27;20056;-60
2023/06/09 01:20:56;;;;;;;5.72;2.38;;;;;;;;;;5109184;28;20043;-60
2023/06/09 01:23:32;;;;;;;8.85;3.45;;;;;;;;;;5105987;28;20039;-60
2023/06/09 01:26:01;;;;;;;7.93;3.20;;;;;;;;;;5086266;28;20043;-60
2023/06/09 01:28:29;;;;;;;8.27;3.38;;;;;;;;;;5107861;28;20059;-60
2023/06/09 01:30:57;;;;;;;7.82;3.10;;;;;;;;;;5108166;28;20050;-60
2023/06/09 01:33:25;;;;;;;7.45;3.05;;;;;;;;;;5101885;28;20039;-60
2023/06/09 01:35:54;;;;;;;10.32;3.28;;;;;;;;;;5108448;28;20080;-60
2023/06/09 01:38:22;;;;;;;9.80;3.10;;;;;;;;;;5105779;28;20043;-60
2023/06/09 01:40:50;;;;;;;9.80;2.97;;;;;;;;;;5102793;28;20517;-60
2023/06/09 01:43:18;;;;;;;10.63;3.10;;;;;;;;;;5102900;28;20102;-60
2023/06/09 01:45:46;;;;;;;4.63;2.85;;;;;;;;;;5101070;28;20055;-60
2023/06/09 01:48:19;;;;;;;7.85;2.90;;;;;;;;;;5085178;28;20077;-60
2023/06/09 01:50:48;;;;;;;6.53;2.90;;;;;;;;;;5094395;28;20059;-60
2023/06/09 01:53:17;;;;;;;5.50;2.75;;;;;;;;;;5105276;28;20401;-60
2023/06/09 01:55:50;;;;;;;8.43;2.78;;;;;;;;;;5104028;28;20060;-60
2023/06/09 01:58:21;;;;;;;8.25;2.95;;;;;;;;;;5110146;28;20487;-60
2023/06/09 02:00:49;;;;;;;8.20;3.03;;;;;;;;;;5104049;28;20534;-60
2023/06/09 02:03:18;;;;;;;6.68;2.97;;;;;;;;;;5109963;28;20046;-60
2023/06/09 02:05:47;;;;;;;6.35;2.90;;;;;;;;;;5108352;28;20136;-60
2023/06/09 02:08:14;;;;;;;5.60;3.03;;;;;;;;;;5106810;28;20099;-60
2023/06/09 02:10:42;;;;;;;7.10;3.10;;;;;;;;;;5103926;28;20066;-60
2023/06/09 02:13:12;;;;;;;7.85;3.13;;;;;;;;;;5107060;28;20075;-60
2023/06/09 02:15:41;;;;;;;9.02;3.45;;;;;;;;;;5109539;28;20048;-60
2023/06/09 02:18:11;;;;;;;10.30;3.70;;;;;;;;;;5117970;27;20586;-60
2023/06/09 02:20:40;;;;;;;10.95;4.22;;;;;;;;;;5106462;27;20054;-60
2023/06/09 02:23:07;;;;;;;9.75;4.13;;;;;;;;;;5111743;28;20048;-60
2023/06/09 02:25:35;;;;;;;11.52;3.85;;;;;;;;;;5094917;28;20040;-60
2023/06/09 02:28:03;;;;;;;11.02;3.83;;;;;;;;;;5112344;28;20054;-60
2023/06/09 02:30:30;;;;;;;9.05;4.10;;;;;;;;;;5109900;28;20040;-60
2023/06/09 02:33:00;;;;;;;7.95;3.53;;;;;;;;;;5112413;28;20456;-60
2023/06/09 02:35:27;;;;;;;6.78;3.15;;;;;;;;;;5105919;28;20035;-60
2023/06/09 02:37:54;;;;;;;9.02;3.75;;;;;;;;;;5107676;27;20453;-60
2023/06/09 02:40:21;;;;;;;9.27;3.88;;;;;;;;;;5112916;28;20047;-60
2023/06/09 02:42:49;;;;;;;13.52;4.03;;;;;;;;;;5108852;28;20402;-60
2023/06/09 02:45:16;;;;;;;6.30;3.13;;;;;;;;;;5112844;27;20044;-60
2023/06/09 02:47:43;;;;;;;6.78;3.22;;;;;;;;;;5113847;27;20518;-60
2023/06/09 02:50:12;;;;;;;6.68;3.22;;;;;;;;;;5111634;28;20046;-60
2023/06/09 02:52:42;;;;;;;7.47;3.25;;;;;;;;;;5108066;27;20518;-60
2023/06/09 02:55:11;;;;;;;8.40;3.15;;;;;;;;;;5111208;28;20126;-60
2023/06/09 02:57:38;;;;;;;10.88;3.38;;;;;;;;;;5106760;28;20049;-60
2023/06/09 03:00:08;;;;;;;7.47;2.70;;;;;;;;;;5111651;28;20043;-60
2023/06/09 03:02:36;;;;;;;7.35;2.53;;;;;;;;;;5108551;28;20039;-60
2023/06/09 03:05:05;;;;;;;5.60;2.97;;;;;;;;;;5106603;28;20444;-60
2023/06/09 03:07:33;;;;;;;8.77;2.70;;;;;;;;;;5111347;28;20093;-60
2023/06/09 03:10:01;;;;;;;6.55;2.70;;;;;;;;;;5109315;27;20044;-60
2023/06/09 03:12:28;;;;;;;6.70;3.10;;;;;;;;;;5109740;28;20039;-60
2023/06/09 03:14:55;;;;;;;6.65;2.70;;;;;;;;;;5111200;28;20445;-60
2023/06/09 03:17:22;;;;;;;7.95;3.30;;;;;;;;;;5108848;27;20035;-60
2023/06/09 03:19:51;;;;;;;7.00;2.88;;;;;;;;;;5107892;28;20083;-60
2023/06/09 03:22:18;;;;;;;8.55;2.50;;;;;;;;;;5110458;27;20173;-60
2023/06/09 03:24:46;;;;;;;7.40;3.05;;;;;;;;;;5111760;28;20052;-60
2023/06/09 03:27:14;;;;;;;8.18;2.97;;;;;;;;;;5096252;28;20063;-60
2023/06/09 03:29:41;;;;;;;6.07;2.80;;;;;;;;;;5110842;28;20039;-60
2023/06/09 03:32:08;;;;;;;9.35;3.10;;;;;;;;;;5108109;28;20046;-60
2023/06/09 03:34:36;;;;;;;7.63;2.83;;;;;;;;;;5104121;28;20051;-60
2023/06/09 03:37:04;;;;;;;10.93;3.35;;;;;;;;;;5109988;28;20523;-60
2023/06/09 03:39:32;;;;;;;9.50;3.55;;;;;;;;;;5110437;28;20048;-60
2023/06/09 03:42:00;;;;;;;8.30;3.70;;;;;;;;;;5105470;28;20075;-60
2023/06/09 03:44:28;;;;;;;8.07;3.60;;;;;;;;;;5109333;28;20153;-60
2023/06/09 03:46:55;;;;;;;9.80;3.85;;;;;;;;;;5106215;28;20128;-60
2023/06/09 03:49:22;;;;;;;10.02;3.67;;;;;;;;;;5083505;28;20052;-60
2023/06/09 03:51:49;;;;;;;11.63;4.00;;;;;;;;;;5108416;28;20599;-60
2023/06/09 03:54:17;;;;;;;12.43;3.67;;;;;;;;;;5107851;28;20054;-60
2023/06/09 03:56:44;;;;;;;8.02;3.58;;;;;;;;;;5103130;28;20483;-60
2023/06/09 03:59:12;;;;;;;10.43;3.80;;;;;;;;;;5108884;28;20050;-60
2023/06/09 04:01:40;;;;;;;13.73;4.05;;;;;;;;;;5090653;28;20498;-60
2023/06/09 04:04:07;;;;;;;12.70;3.80;;;;;;;;;;5107670;28;20537;-60
2023/06/09 04:06:35;;;;;;;9.38;3.72;;;;;;;;;;5090849;28;20044;-60
2023/06/09 04:09:03;;;;;;;9.85;3.72;;;;;;;;;;5107429;28;20043;-60
2023/06/09 04:11:32;;;;;;;9.40;4.40;;;;;;;;;;5108204;28;20478;-60
2023/06/09 04:13:59;;;;;;;9.60;4.07;;;;;;;;;;5108807;28;20090;-60
2023/06/09 04:16:28;;;;;;;10.23;3.45;;;;;;;;;;5112000;28;20054;-60
2023/06/09 04:18:55;;;;;;;7.65;3.42;;;;;;;;;;5110160;28;20047;-60
2023/06/09 04:21:22;;;;;;;10.07;3.55;;;;;;;;;;5111334;28;20048;-61
2023/06/09 04:23:49;;;;;;;9.27;3.50;;;;;;;;;;5109792;28;20429;-60
2023/06/09 04:26:17;;;;;;;9.25;3.65;;;;;;;;;;5111759;28;20054;-60
2023/06/09 04:28:44;;;;;;;9.60;3.13;;;;;;;;;;5109297;28;20073;-60
2023/06/09 04:31:12;;;;;;;10.85;3.28;;;;;;;;;;5111726;28;20463;-60
2023/06/09 04:33:41;;;;;;;12.43;3.58;;;;;;;;;;5109782;28;20039;-60
2023/06/09 04:36:08;;;;;;;6.65;3.08;;;;;;;;;;5110969;27;20486;-60
2023/06/09 04:38:36;;;;;;;7.72;3.25;;;;;;;;;;5094731;28;20097;-60
2023/06/09 04:41:04;;;;;;;8.65;3.08;;;;;;;;;;5105514;28;20122;-61
2023/06/09 04:43:32;;;;;;;6.40;2.80;;;;;;;;;;5092189;28;20044;-60
2023/06/09 04:46:00;;;;;;;7.88;3.30;;;;;;;;;;5109093;28;20497;-60
2023/06/09 04:48:29;;;;;;;9.52;3.22;;;;;;;;;;5109927;28;20126;-60
2023/06/09 04:51:01;;;;;;;7.40;3.30;;;;;;;;;;5102218;28;20044;-60
2023/06/09 04:53:29;;;;;;;16.80;3.47;;;;;;;;;;5105108;28;20474;-60
2023/06/09 04:55:58;;;;;;;11.60;3.25;;;;;;;;;;5104839;28;20513;-60
2023/06/09 04:58:28;;;;;;;7.60;3.08;;;;;;;;;;5108606;28;20040;-60
2023/06/09 05:00:57;;;;;;;9.30;3.13;;;;;;;;;;5106212;28;20572;-60
2023/06/09 05:03:25;;;;;;;7.25;3.17;;;;;;;;;;5106827;28;20043;-60
2023/06/09 05:05:52;;;;;;;7.18;3.70;;;;;;;;;;5109798;28;20570;-60
2023/06/09 05:08:21;;;;;;;6.82;3.10;;;;;;;;;;5105023;28;20043;-60
2023/06/09 05:10:48;;;;;;;6.28;3.03;;;;;;;;;;5108923;28;20051;-65
2023/06/09 05:13:15;;;;;;;8.93;3.17;;;;;;;;;;5104701;28;20528;-65
2023/06/09 05:15:43;;;;;;;10.85;3.45;;;;;;;;;;5097661;28;20058;-65
2023/06/09 05:18:10;;;;;;;7.40;3.35;;;;;;;;;;5105861;27;20043;-64
2023/06/09 05:20:37;;;;;;;8.80;2.75;;;;;;;;;;5106236;28;20514;-65
2023/06/09 05:23:04;;;;;;;7.53;2.70;;;;;;;;;;5105999;27;20051;-65
2023/06/09 05:25:35;;;;;;;7.28;3.10;;;;;;;;;;5105419;28;20417;-65
2023/06/09 05:28:02;;;;;;;7.85;2.90;;;;;;;;;;5109391;28;20470;-65
2023/06/09 05:30:29;;;;;;;6.50;3.00;;;;;;;;;;5107173;28;20051;-65
2023/06/09 05:32:56;;;;;;;7.28;2.67;;;;;;;;;;5105361;28;20067;-65
2023/06/09 05:35:24;;;;;;;7.32;2.63;;;;;;;;;;5103134;28;20043;-65
2023/06/09 05:37:51;;;;;;;5.82;2.53;;;;;;;;;;5100867;28;20177;-65
2023/06/09 05:40:19;;;;;;;6.65;2.50;;;;;;;;;;5103598;28;20490;-65
2023/06/09 05:42:47;;;;;;;6.30;2.63;;;;;;;;;;5108421;28;20050;-65
2023/06/09 05:45:15;;;;;;;7.40;3.33;;;;;;;;;;5109228;28;20489;-65
2023/06/09 05:47:42;;;;;;;8.45;2.92;;;;;;;;;;5104693;28;20048;-65
2023/06/09 05:50:09;;;;;;;8.52;3.38;;;;;;;;;;5103015;28;20422;-65
2023/06/09 05:52:37;;;;;;;7.55;2.83;;;;;;;;;;5106401;28;20051;-65
2023/06/09 05:55:04;;;;;;;7.43;2.88;;;;;;;;;;5099166;28;20050;-65
2023/06/09 05:57:32;;;;;;;10.55;3.40;;;;;;;;;;5106906;28;20036;-65
2023/06/09 06:00:07;;;;;;;5.47;2.78;;;;;;;;;;5097003;28;20507;-65
2023/06/09 06:02:34;;;;;;;7.15;2.70;;;;;;;;;;5087032;28;20048;-65
2023/06/09 06:05:02;;;;;;;5.47;2.50;;;;;;;;;;5109985;28;20070;-65
2023/06/09 06:07:29;;;;;;;6.18;2.95;;;;;;;;;;5103913;28;20118;-65
2023/06/09 06:09:57;;;;;;;8.48;2.50;;;;;;;;;;5094130;28;20051;-65
2023/06/09 06:12:24;;;;;;;12.27;2.75;;;;;;;;;;5106058;28;20406;-65
2023/06/09 06:14:51;;;;;;;6.40;2.25;;;;;;;;;;5108210;28;20052;-65
2023/06/09 06:17:20;;;;;;;6.28;2.33;;;;;;;;;;5093993;28;20054;-65
2023/06/09 06:19:47;;;;;;;7.88;2.55;;;;;;;;;;5106716;28;20074;-65
2023/06/09 06:22:14;;;;;;;9.68;2.70;;;;;;;;;;5107530;28;20051;-65
2023/06/09 06:24:41;;;;;;;8.32;2.85;;;;;;;;;;5107881;28;20054;-65
2023/06/09 06:27:11;;;;;;;5.93;2.25;;;;;;;;;;5105820;28;20046;-65
2023/06/09 06:29:38;;;;;;;8.93;2.47;;;;;;;;;;5108610;28;20055;-66
2023/06/09 06:32:06;;;;;;;5.72;2.30;;;;;;;;;;5100809;28;20047;-67
2023/06/09 06:34:35;;;;;;;8.32;2.45;;;;;;;;;;5102310;28;20043;-65
2023/06/09 06:37:03;;;;;;;6.32;2.47;;;;;;;;;;5100294;28;20054;-66
2023/06/09 06:39:30;;;;;;;4.18;2.20;;;;;;;;;;5107488;28;20035;-66
2023/06/09 06:41:57;;;;;;;10.48;2.53;;;;;;;;;;5106444;28;20044;-66
2023/06/09 06:44:24;;;;;;;8.65;2.65;;;;;;;;;;5107492;28;20047;-66
2023/06/09 06:46:52;;;;;;;8.43;2.78;;;;;;;;;;5108140;28;20043;-66
2023/06/09 06:49:19;;;;;;;7.20;2.53;;;;;;;;;;5107764;28;20482;-66
2023/06/09 06:51:48;;;;;;;7.60;2.58;;;;;;;;;;5108384;28;20058;-66
2023/06/09 06:54:16;;;;;;;6.57;2.90;;;;;;;;;;5105200;28;20050;-65
2023/06/09 06:56:44;;;;;;;7.32;3.13;;;;;;;;;;5108908;28;20154;-65
2023/06/09 06:59:11;;;;;;;10.98;3.10;;;;;;;;;;5107116;28;20054;-65
2023/06/09 07:01:38;;;;;;;6.57;2.60;;;;;;;;;;5109817;28;20062;-66
2023/06/09 07:04:06;;;;;;;6.88;3.30;;;;;;;;;;5112064;28;20053;-66
2023/06/09 07:06:33;;;;;;;7.60;2.55;;;;;;;;;;5107713;27;20148;-66
2023/06/09 07:09:02;;;;;;;7.07;2.97;;;;;;;;;;5103776;27;20043;-66
2023/06/09 07:11:29;;;;;;;7.80;2.78;;;;;;;;;;5106790;28;20668;-65
2023/06/09 07:13:57;;;;;;;8.02;2.88;;;;;;;;;;5100932;28;20063;-66
2023/06/09 07:16:24;;;;;;;8.20;2.55;;;;;;;;;;5106616;28;20048;-65
2023/06/09 07:18:51;;;;;;;4.07;2.33;;;;;;;;;;5105622;28;20127;-66
2023/06/09 07:21:19;;;;;;;5.55;2.35;;;;;;;;;;5110633;28;20055;-66
2023/06/09 07:23:46;;;;;;;7.93;2.95;;;;;;;;;;5109187;28;20122;-65
2023/06/09 07:26:14;;;;;;;6.43;2.70;;;;;;;;;;5108878;27;20036;-66
2023/06/09 07:28:42;;;;;;;9.02;2.72;;;;;;;;;;5110117;28;20044;-66
2023/06/09 07:31:09;;;;;;;10.10;3.30;;;;;;;;;;5113007;28;20054;-66
2023/06/09 07:33:37;;;;;;;8.57;2.92;;;;;;;;;;5100276;28;20486;-66
2023/06/09 07:36:05;;;;;;;8.93;2.47;;;;;;;;;;5097037;28;20101;-65
2023/06/09 07:38:32;;;;;;;6.45;2.67;;;;;;;;;;5106893;28;20060;-66
2023/06/09 07:40:59;;;;;;;10.50;3.08;;;;;;;;;;5107814;28;20535;-66
2023/06/09 07:43:28;;;;;;;11.93;3.35;;;;;;;;;;5087962;28;20051;-66
2023/06/09 07:45:56;;;;;;;9.43;3.10;;;;;;;;;;5103878;28;20051;-66
2023/06/09 07:48:24;;;;;;;5.18;2.38;;;;;;;;;;5110145;27;20483;-66
2023/06/09 07:50:52;;;;;;;7.82;2.85;;;;;;;;;;5114268;27;20043;-66
2023/06/09 07:53:20;;;;;;;9.45;2.55;;;;;;;;;;5110037;28;20054;-66
2023/06/09 07:55:47;;;;;;;7.35;2.80;;;;;;;;;;5107231;28;20047;-66
2023/06/09 07:58:14;;;;;;;10.85;2.90;;;;;;;;;;5111238;28;20055;-66
2023/06/09 08:00:43;;;;;;;12.60;3.85;;;;;;;;;;5108019;28;20051;-66
2023/06/09 08:03:10;;;;;;;5.60;2.70;;;;;;;;;;5103126;28;20047;-66
2023/06/09 08:05:37;;;;;;;9.73;3.33;;;;;;;;;;5109814;28;20082;-66
2023/06/09 08:08:05;;;;;;;9.48;2.90;;;;;;;;;;5109957;28;20475;-66
2023/06/09 08:10:32;;;;;;;5.78;2.53;;;;;;;;;;5083104;28;20444;-67
2023/06/09 08:13:00;;;;;;;9.25;2.85;;;;;;;;;;5110654;28;20490;-66
2023/06/09 08:15:27;;;;;;;11.07;2.92;;;;;;;;;;5108173;28;20039;-66
2023/06/09 08:17:56;;;;;;;7.35;2.78;;;;;;;;;;5116885;27;20047;-66
2023/06/09 08:20:23;;;;;;;6.90;3.00;;;;;;;;;;5106979;27;20043;-67
2023/06/09 08:22:50;;;;;;;7.22;2.58;;;;;;;;;;5110523;28;20410;-66
2023/06/09 08:25:17;;;;;;;5.75;2.90;;;;;;;;;;5105499;28;20040;-67
2023/06/09 08:27:46;;;;;;;7.18;2.70;;;;;;;;;;5111014;28;20047;-66
2023/06/09 08:30:13;;;;;;;6.32;2.80;;;;;;;;;;5108189;28;20052;-67
2023/06/09 08:32:40;;;;;;;6.93;2.70;;;;;;;;;;5110492;28;20509;-66
2023/06/09 08:35:10;;;;;;;5.95;2.42;;;;;;;;;;5093731;28;20056;-66
2023/06/09 08:37:38;;;;;;;6.07;2.67;;;;;;;;;;5111504;28;20058;-67
2023/06/09 08:40:08;;;;;;;12.10;3.40;;;;;;;;;;5106504;28;20040;-67
2023/06/09 08:42:35;;;;;;;6.25;2.63;;;;;;;;;;5083472;28;20055;-67
2023/06/09 08:45:05;;;;;;;3.95;2.30;;;;;;;;;;5101505;28;20055;-67
2023/06/09 08:47:33;;;;;;;9.27;3.13;;;;;;;;;;5110545;28;20105;-66
2023/06/09 08:50:02;;;;;;;9.93;2.50;;;;;;;;;;5094320;28;20075;-67
2023/06/09 08:52:31;;;;;;;6.90;3.13;;;;;;;;;;5107697;28;20046;-67
2023/06/09 08:54:59;;;;;;;4.63;2.75;;;;;;;;;;5100952;28;20047;-68
2023/06/09 08:57:26;;;;;;;9.75;3.00;;;;;;;;;;5107996;28;20042;-67
2023/06/09 08:59:54;;;;;;;8.43;2.92;;;;;;;;;;5108682;28;20410;-67
2023/06/09 09:02:21;;;;;;;6.40;2.67;;;;;;;;;;5107407;28;20044;-67
2023/06/09 09:04:49;;;;;;;9.90;3.03;;;;;;;;;;5109364;28;20043;-67
2023/06/09 09:07:17;;;;;;;8.90;3.03;;;;;;;;;;5110183;28;20451;-67
2023/06/09 09:09:45;;;;;;;8.10;3.03;;;;;;;;;;5078039;28;20067;-67
2023/06/09 09:12:13;;;;;;;8.15;2.67;;;;;;;;;;5105525;28;20436;-67
2023/06/09 09:14:41;;;;;;;7.53;2.60;;;;;;;;;;5104669;28;20078;-67
2023/06/09 09:17:10;;;;;;;9.15;2.60;;;;;;;;;;5102223;28;20062;-67
2023/06/09 09:19:39;;;;;;;11.18;2.80;;;;;;;;;;5108620;28;20082;-67
2023/06/09 09:22:07;;;;;;;7.20;2.75;;;;;;;;;;5102773;28;20074;-67
2023/06/09 09:24:35;;;;;;;8.90;3.40;;;;;;;;;;5103461;28;20044;-67
2023/06/09 09:27:05;;;;;;;6.15;2.58;;;;;;;;;;5104205;28;20434;-67
2023/06/09 09:29:40;;;;;;;5.85;2.72;;;;;;;;;;5110413;28;20054;-67
2023/06/09 09:32:08;;;;;;;7.97;3.08;;;;;;;;;;5107237;28;20435;-67
2023/06/09 09:34:35;;;;;;;7.63;2.95;;;;;;;;;;5109395;28;20074;-67
2023/06/09 09:37:06;;;;;;;6.25;2.67;;;;;;;;;;5108360;28;20093;-67
2023/06/09 09:39:33;;;;;;;8.32;2.85;;;;;;;;;;5106775;28;20040;-67
2023/06/09 09:42:07;;;;;;;10.02;3.15;;;;;;;;;;5105589;28;20059;-67
2023/06/09 09:44:37;;;;;;;4.90;2.63;;;;;;;;;;5107511;28;20043;-67
2023/06/09 09:47:05;;;;;;;7.90;3.10;;;;;;;;;;5102516;28;20047;-67
2023/06/09 09:49:33;;;;;;;7.15;3.20;;;;;;;;;;5107567;28;20043;-67
2023/06/09 09:52:00;;;;;;;6.80;3.13;;;;;;;;;;5087316;28;20052;-67
2023/06/09 09:54:28;;;;;;;5.85;2.72;;;;;;;;;;5102932;28;20092;-67
2023/06/09 09:56:56;;;;;;;8.35;3.15;;;;;;;;;;5100703;28;20051;-67
2023/06/09 09:59:25;;;;;;;7.93;2.75;;;;;;;;;;5106318;28;20495;-68
2023/06/09 10:01:53;;;;;;;8.75;3.25;;;;;;;;;;5108787;28;20052;-68
2023/06/09 10:04:24;;;;;;;6.85;3.22;;;;;;;;;;5108915;28;20059;-67
2023/06/09 10:06:53;;;;;;;9.35;3.13;;;;;;;;;;5107169;28;20498;-68
2023/06/09 10:09:21;;;;;;;10.63;3.70;;;;;;;;;;5103495;28;20055;-67
2023/06/09 10:11:49;;;;;;;7.32;3.05;;;;;;;;;;5096537;28;20410;-68
2023/06/09 10:14:16;;;;;;;7.47;2.95;;;;;;;;;;5098507;28;20048;-68
2023/06/09 10:16:45;;;;;;;11.23;3.42;;;;;;;;;;5101910;28;20051;-67
2023/06/09 10:19:13;;;;;;;11.57;3.47;;;;;;;;;;5108308;28;20044;-68
2023/06/09 10:21:41;;;;;;;6.18;3.10;;;;;;;;;;5107007;28;20036;-67
2023/06/09 10:24:09;;;;;;;9.30;3.42;;;;;;;;;;5100482;28;20044;-67
2023/06/09 10:26:38;;;;;;;8.60;3.05;;;;;;;;;;5104119;28;20088;-68
2023/06/09 10:29:08;;;;;;;5.50;2.72;;;;;;;;;;5107582;28;20123;-68
2023/06/09 10:31:36;;;;;;;7.75;2.97;;;;;;;;;;5106181;28;20040;-68
2023/06/09 10:34:08;;;;;;;9.15;3.13;;;;;;;;;;5107916;28;20056;-68
2023/06/09 10:36:37;;;;;;;10.23;3.25;;;;;;;;;;5110089;28;20058;-67
2023/06/09 10:39:16;;;;;;;5.60;3.10;;;;;;;;;;5110201;28;20050;-68
2023/06/09 10:41:45;;;;;;;4.72;2.50;;;;;;;;;;5110422;27;20463;-67
2023/06/09 10:44:21;;;;;;;10.38;3.20;;;;;;;;;;5111376;28;20513;-68
2023/06/09 10:46:50;;;;;;;10.13;3.20;;;;;;;;;;5109069;27;20047;-68
2023/06/09 10:49:39;;;;;;;5.13;2.70;;;;;;;;;;5108857;28;20049;-68
2023/06/09 10:52:07;;;;;;;5.10;2.90;;;;;;;;;;5108433;28;20043;-68
2023/06/09 10:54:35;;;;;;;5.63;2.80;;;;;;;;;;5111528;27;20196;-68
2023/06/09 10:57:04;;;;;;;8.80;3.22;;;;;;;;;;5109379;28;20046;-68
2023/06/09 11:00:15;;;;;;;8.68;3.03;;;;;;;;;;5111055;28;20047;-68
2023/06/09 11:02:43;;;;;;;5.88;2.65;;;;;;;;;;5107347;27;20047;-68
2023/06/09 11:05:12;;;;;;;5.30;3.03;;;;;;;;;;5111287;28;20541;-68
2023/06/09 11:07:45;;;;;;;7.50;2.83;;;;;;;;;;5092355;28;20044;-68
2023/06/09 11:10:28;;;;;;;6.93;3.22;;;;;;;;;;5109242;28;20044;-68
2023/06/09 11:12:56;;;;;;;6.15;2.47;;;;;;;;;;5109773;28;20050;-68
2023/06/09 11:15:24;;;;;;;5.25;2.72;;;;;;;;;;5107855;28;20039;-68
2023/06/09 11:17:52;;;;;;;6.95;2.80;;;;;;;;;;5109721;27;20126;-68
2023/06/09 11:20:22;;;;;;;9.02;3.53;;;;;;;;;;5097291;28;20052;-68
2023/06/09 11:23:03;;;;;;;5.82;2.78;;;;;;;;;;5105079;28;20055;-68
2023/06/09 11:25:38;;;;;;;6.65;3.15;;;;;;;;;;5100099;27;20507;-68
2023/06/09 11:28:22;;;;;;;11.30;3.40;;;;;;;;;;5111584;28;20050;-68
2023/06/09 11:31:06;;;;;;;6.85;3.30;;;;;;;;;;5110844;28;20052;-68
2023/06/09 11:33:47;;;;;;;5.78;2.75;;;;;;;;;;5107061;27;20062;-68
2023/06/09 11:36:19;;;;;;;5.57;2.65;;;;;;;;;;5111650;28;20146;-69
2023/06/09 11:38:46;;;;;;;;;;;;;;;;;;5105428;28;20040;-68
2023/06/09 11:41:14;;;;;;;8.95;3.13;;;;;;;;;;5096480;28;20371;-68
2023/06/09 11:43:50;;;;;;;6.60;2.80;;;;;;;;;;5108472;28;20479;-68
2023/06/09 11:46:18;;;;;;;8.90;3.05;;;;;;;;;;5108062;28;20043;-68
2023/06/09 11:48:58;;;;;;;8.07;3.15;;;;;;;;;;5114057;27;20039;-68
2023/06/09 11:51:27;;;;;;;8.18;3.10;;;;;;;;;;5107493;28;20122;-69
2023/06/09 11:53:54;;;;;;;6.60;2.60;;;;;;;;;;5107210;28;20047;-69
2023/06/09 11:56:21;;;;;;;8.00;3.65;;;;;;;;;;5085688;28;20048;-68
2023/06/09 11:58:48;;;;;;;7.55;3.15;;;;;;;;;;5106948;28;20494;-69
2023/06/09 12:01:19;;;;;;;6.60;3.22;;;;;;;;;;5107386;28;20058;-69
2023/06/09 12:03:46;;;;;;;7.68;3.45;;;;;;;;;;5106774;27;20058;-69
2023/06/09 12:06:17;;;;;;;7.78;3.60;;;;;;;;;;5109303;28;20044;-68
2023/06/09 12:08:46;;;;;;;8.52;3.20;;;;;;;;;;5110835;28;20123;-68
2023/06/09 12:11:17;;;;;;;10.27;3.83;;;;;;;;;;5110356;28;20047;-68
2023/06/09 12:13:48;;;;;;;8.82;3.67;;;;;;;;;;5108806;28;20138;-69
2023/06/09 12:16:15;;;;;;;7.80;3.13;;;;;;;;;;5110160;28;20453;-69
2023/06/09 12:18:42;;;;;;;10.45;3.38;;;;;;;;;;5111337;27;20090;-68
2023/06/09 12:21:13;;;;;;;8.45;3.00;;;;;;;;;;5105159;28;20126;-68
2023/06/09 12:23:40;;;;;;;8.55;3.20;;;;;;;;;;5108454;28;20085;-68
2023/06/09 12:26:09;;;;;;;7.95;3.28;;;;;;;;;;5101574;28;20271;-68
2023/06/09 12:28:38;;;;;;;8.27;3.20;;;;;;;;;;5105559;28;20044;-69
2023/06/09 12:31:09;;;;;;;8.02;3.83;;;;;;;;;;5105961;28;20043;-69
2023/06/09 12:33:37;;;;;;;7.15;3.42;;;;;;;;;;5105072;28;20044;-69
2023/06/09 12:36:07;;;;;;;6.30;3.30;;;;;;;;;;5105742;28;20047;-68
2023/06/09 12:38:37;;;;;;;7.15;3.25;;;;;;;;;;5102640;28;20070;-69
2023/06/09 12:41:05;;;;;;;5.85;3.10;;;;;;;;;;5110002;28;20071;-68
2023/06/09 12:43:45;;;;;;;8.35;3.30;;;;;;;;;;5108830;28;20059;-69
2023/06/09 12:46:13;;;;;;;8.00;3.10;;;;;;;;;;5107020;28;20044;-69
2023/06/09 12:48:56;;;;;;;9.07;3.25;;;;;;;;;;5110481;27;20040;-69
2023/06/09 12:51:24;;;;;;;5.18;3.08;;;;;;;;;;5106045;28;20490;-69
2023/06/09 12:53:51;;;;;;;5.85;3.00;;;;;;;;;;5108712;28;20051;-69
2023/06/09 12:56:19;;;;;;;6.85;2.97;;;;;;;;;;5104938;28;20885;-69
2023/06/09 12:58:48;;;;;;;6.45;3.22;;;;;;;;;;5109059;28;20054;-69
2023/06/09 13:01:15;;;;;;;7.38;3.05;;;;;;;;;;5108065;28;20054;-69
2023/06/09 13:03:43;;;;;;;7.03;3.42;;;;;;;;;;5110320;28;20074;-69
2023/06/09 13:06:10;;;;;;;5.70;2.80;;;;;;;;;;5108400;27;20050;-69
2023/06/09 13:08:38;;;;;;;6.45;3.22;;;;;;;;;;5097651;28;20092;-69
2023/06/09 13:11:05;;;;;;;8.68;3.58;;;;;;;;;;5106121;28;20483;-69
2023/06/09 13:13:32;;;;;;;9.82;3.55;;;;;;;;;;5106392;28;20054;-69
2023/06/09 13:16:01;;;;;;;11.82;3.78;;;;;;;;;;5109059;28;20047;-69
2023/06/09 13:18:28;;;;;;;7.97;3.42;;;;;;;;;;5109174;28;20039;-70
2023/06/09 13:20:55;;;;;;;7.75;3.45;;;;;;;;;;5109463;27;20051;-69
2023/06/09 13:23:22;;;;;;;8.07;3.75;;;;;;;;;;5108784;28;20058;-69
2023/06/09 13:25:50;;;;;;;9.75;3.67;;;;;;;;;;5105346;28;20052;-69
2023/06/09 13:28:18;;;;;;;6.78;3.33;;;;;;;;;;5108501;28;20044;-70
2023/06/09 13:30:45;;;;;;;7.78;3.28;;;;;;;;;;5109283;28;20048;-70
2023/06/09 13:33:16;;;;;;;5.80;3.33;;;;;;;;;;5106095;28;20054;-69
2023/06/09 13:35:45;;;;;;;7.07;3.77;;;;;;;;;;5082143;28;20039;-69
2023/06/09 13:38:12;;;;;;;8.55;2.92;;;;;;;;;;5107393;28;20063;-69
2023/06/09 13:40:43;;;;;;;6.78;3.60;;;;;;;;;;5104433;28;20044;-69
2023/06/09 13:43:11;;;;;;;7.10;3.85;;;;;;;;;;5086608;28;20127;-70
2023/06/09 13:45:39;;;;;;;5.68;3.33;;;;;;;;;;5099743;28;20161;-69
2023/06/09 13:48:07;;;;;;;7.90;3.58;;;;;;;;;;5111984;28;20047;-69
2023/06/09 13:50:36;;;;;;;7.40;3.35;;;;;;;;;;5107539;28;20133;-69
2023/06/09 13:53:04;;;;;;;7.05;3.15;;;;;;;;;;5108987;28;20047;-69
2023/06/09 13:55:31;;;;;;;9.13;3.58;;;;;;;;;;5103812;28;20052;-69
2023/06/09 13:57:58;;;;;;;6.25;3.10;;;;;;;;;;5091367;28;20056;-69
2023/06/09 14:00:25;;;;;;;6.93;3.15;;;;;;;;;;5109229;28;20187;-69
2023/06/09 14:02:53;;;;;;;5.00;3.45;;;;;;;;;;5107666;28;20039;-69
2023/06/09 14:05:22;;;;;;;8.07;3.60;;;;;;;;;;5102232;28;20055;-69
2023/06/09 14:07:51;;;;;;;7.53;3.83;;;;;;;;;;5101260;28;20510;-69
2023/06/09 14:10:18;;;;;;;7.03;3.70;;;;;;;;;;5107723;28;20395;-70
2023/06/09 14:12:47;;;;;;;4.65;3.03;;;;;;;;;;5108285;28;20044;-69
2023/06/09 14:15:16;;;;;;;7.80;3.42;;;;;;;;;;5108050;28;20396;-69
2023/06/09 14:17:49;;;;;;;5.18;3.38;;;;;;;;;;5111131;28;20108;-69
2023/06/09 14:20:18;;;;;;;6.10;3.42;;;;;;;;;;5101963;28;20046;-70
2023/06/09 14:22:45;;;;;;;7.53;3.35;;;;;;;;;;5091332;28;20056;-69
2023/06/09 14:25:18;;;;;;;7.63;3.58;;;;;;;;;;5106037;28;20063;-70
2023/06/09 14:27:46;;;;;;;6.88;3.65;;;;;;;;;;5111449;27;20071;-70
2023/06/09 14:30:14;;;;;;;6.85;3.90;;;;;;;;;;5110806;28;20055;-70
2023/06/09 14:32:44;;;;;;;5.50;3.53;;;;;;;;;;5101426;28;20059;-70
2023/06/09 14:35:14;;;;;;;8.15;4.07;;;;;;;;;;5109386;28;20048;-70
2023/06/09 14:37:41;;;;;;;5.47;3.60;;;;;;;;;;5101515;28;20180;-70
2023/06/09 14:40:09;;;;;;;5.50;3.63;;;;;;;;;;5107174;28;20059;-70
2023/06/09 14:42:37;;;;;;;5.40;3.25;;;;;;;;;;5110489;28;20051;-70
2023/06/09 14:45:05;;;;;;;5.15;3.78;;;;;;;;;;5099699;28;20143;-70
2023/06/09 14:47:32;;;;;;;5.97;3.60;;;;;;;;;;5111124;28;20101;-70
2023/06/09 14:49:59;;;;;;;7.15;3.22;;;;;;;;;;5105039;28;20059;-70